To NAV CANADA Home Page Login to a new session Search on AWWS site Disclaimer Vers la page française équivalente Tips FAQ What's new on the site To the Forecasts and Observations / NOTAM section To "File a Flight Plan" website Publications and other links Update of the User's profile FIC Telephone Numbers My Weather Data Folder Route Weather Data Regional Weather Data Local Weather Data To the Forecasts and Observations / NOTAM section
Request Generated 01/22/2019 at 02:36:05 UTC . Weather information available at that time is displayed.

METAR/TAF

WHITEHORSE/ERIK NIELSEN INTL/YT    

METAR CYXY 220200Z 36003KT 15SM SCT065 BKN120 OVC160 M17/M19 A2973 RMK SC4AC2AC2 SLP139=
METAR CYXY 220100Z 00000KT 20SM SCT065 OVC160 M15/M18 A2974 RMK SC4AC4 SLP141=
SPECI CYXY 220051Z VRB02KT 20SM SCT065 OVC160 M15/M18 A2974 RMK SC4AC4 SLP142=
METAR CYXY 220000Z 00000KT 6SM -SN BKN065 OVC120 M15/M18 A2975 RMK SC6AC2 SLP143=

TAF CYXY 212338Z 2200/2212 VRB03KT P6SM FEW020 BKN060 OVC150 TEMPO
2200/2206 P6SM -SN SCT020 OVC060
FM220600 32006KT P6SM SCT020 BKN050 TEMPO 2206/2212 P6SM -SN
SCT008 BKN020 OVC060
RMK NXT FCST BY 220600Z=
Your time UTC time
Weather data provided by Environment Canada and NAV CANADA